createdAt,value
2019-05-02T00:03:05.816Z,7.83
2019-05-02T00:11:27.349Z,8.17
2019-05-02T00:15:37.847Z,7.30
2019-05-02T00:19:45.014Z,9.33
2019-05-02T00:23:48.255Z,8.47
2019-05-02T00:27:54.068Z,6.80
2019-05-02T00:31:59.781Z,9.10
2019-05-02T00:36:05.580Z,11.30
2019-05-02T00:40:11.588Z,7.87
2019-05-02T00:44:17.285Z,7.10
2019-05-02T00:48:42.727Z,7.43
2019-05-02T00:52:48.487Z,7.50
2019-05-02T00:56:54.217Z,10.00
2019-05-02T01:01:19.537Z,12.03
2019-05-02T01:05:25.468Z,8.70
2019-05-02T01:09:32.595Z,8.83
2019-05-02T01:13:38.370Z,7.77
2019-05-02T01:17:44.038Z,7.67
2019-05-02T01:21:49.718Z,7.07
2019-05-02T01:25:55.487Z,6.50
2019-05-02T01:30:15.711Z,8.67
2019-05-02T01:34:34.924Z,6.17
2019-05-02T01:38:45.342Z,7.73
2019-05-02T01:42:51.143Z,8.47
2019-05-02T01:46:58.765Z,8.70
2019-05-02T01:51:10.064Z,9.67
2019-05-02T01:55:11.968Z,7.00
2019-05-02T01:59:17.649Z,7.47
2019-05-02T02:03:23.339Z,10.77
2019-05-02T02:07:29.030Z,7.93
2019-05-02T02:11:35.854Z,8.30
2019-05-02T02:15:41.730Z,10.43
2019-05-02T02:19:49.021Z,11.73
2019-05-02T02:24:02.367Z,8.50
2019-05-02T02:28:08.254Z,10.73
2019-05-02T02:32:20.345Z,7.57
2019-05-02T02:36:31.370Z,9.87
2019-05-02T02:40:33.661Z,9.20
2019-05-02T02:44:41.979Z,10.20
2019-05-02T02:48:47.700Z,8.20
2019-05-02T02:52:53.388Z,9.20
2019-05-02T02:56:59.083Z,9.60
2019-05-02T03:01:05.388Z,10.17
2019-05-02T03:05:11.266Z,7.97
2019-05-02T03:09:20.126Z,9.07
2019-05-02T03:13:24.367Z,9.50
2019-05-02T03:17:30.038Z,9.83
2019-05-02T03:21:35.844Z,8.33
2019-05-02T03:25:50.562Z,8.33
2019-05-02T03:29:51.528Z,9.93
2019-05-02T03:34:00.829Z,8.67
2019-05-02T03:38:05.153Z,8.87
2019-05-02T03:42:11.049Z,8.13
2019-05-02T03:46:20.706Z,7.43
2019-05-02T03:50:32.375Z,9.50
2019-05-02T03:54:32.547Z,11.50
2019-05-02T03:58:38.526Z,8.80
2019-05-02T04:02:44.970Z,8.20
2019-05-02T04:06:55.055Z,9.03
2019-05-02T04:11:20.965Z,8.93
2019-05-02T04:15:28.839Z,8.17
2019-05-02T04:19:35.259Z,8.17
2019-05-02T04:23:42.865Z,7.50
2019-05-02T04:27:49.169Z,8.83
2019-05-02T04:31:54.881Z,9.80
2019-05-02T04:36:00.633Z,7.17
2019-05-02T04:40:11.989Z,10.03
2019-05-02T04:44:15.288Z,9.37
2019-05-02T04:48:20.981Z,9.60
2019-05-02T04:52:28.823Z,11.70
2019-05-02T04:56:42.121Z,10.03
2019-05-02T05:00:45.130Z,9.77
2019-05-02T05:04:49.566Z,8.47
2019-05-02T05:08:58.484Z,12.67
2019-05-02T05:13:03.625Z,9.63
2019-05-02T05:17:09.386Z,13.47
2019-05-02T05:21:17.618Z,10.63
2019-05-02T05:25:30.180Z,11.73
2019-05-02T05:29:37.477Z,13.53
2019-05-02T05:33:43.175Z,9.17
2019-05-02T05:37:52.899Z,12.20
2019-05-02T05:41:57.822Z,12.53
2019-05-02T05:46:12.312Z,13.20
2019-05-02T05:50:11.153Z,14.50
2019-05-02T05:54:17.827Z,14.17
2019-05-02T05:58:23.703Z,12.83
2019-05-02T06:02:29.379Z,12.63
2019-05-02T06:06:35.134Z,12.17
2019-05-02T06:10:43.903Z,12.77
2019-05-02T06:14:48.200Z,15.67
2019-05-02T06:18:54.160Z,15.70
2019-05-02T06:23:01.275Z,14.70
2019-05-02T06:27:07.060Z,18.13
2019-05-02T06:31:16.695Z,16.00
2019-05-02T06:35:22.401Z,12.43
2019-05-02T06:39:32.005Z,14.90
2019-05-02T06:43:36.504Z,13.90
2019-05-02T06:47:43.606Z,11.27
2019-05-02T06:51:50.989Z,12.80
2019-05-02T06:55:56.708Z,12.80
2019-05-02T07:00:02.615Z,14.63
2019-05-02T07:04:10.255Z,14.80
2019-05-02T07:08:16.112Z,16.37
2019-05-02T07:12:21.959Z,12.47
2019-05-02T07:16:38.407Z,19.97
2019-05-02T07:20:40.499Z,11.87
2019-05-02T07:24:44.215Z,10.10
2019-05-02T07:28:51.022Z,15.60
2019-05-02T07:33:01.157Z,12.37
2019-05-02T07:37:08.464Z,10.73
2019-05-02T07:41:12.149Z,16.53
2019-05-02T07:45:18.187Z,10.30
2019-05-02T07:49:26.603Z,8.27
2019-05-02T07:53:31.248Z,11.43
2019-05-02T07:57:36.955Z,14.67
2019-05-02T08:01:44.891Z,12.60
2019-05-02T08:05:54.432Z,15.50
2019-05-02T08:09:57.546Z,13.23
2019-05-02T08:14:03.319Z,13.23
2019-05-02T08:18:09.181Z,12.93
2019-05-02T08:22:15.064Z,14.03
2019-05-02T08:26:21.732Z,13.37
2019-05-02T08:30:29.779Z,12.97
2019-05-02T08:34:35.478Z,11.93
2019-05-02T08:38:41.186Z,13.83
2019-05-02T08:42:46.879Z,12.63
2019-05-02T08:46:53.285Z,13.73
2019-05-02T08:50:59.080Z,12.57
2019-05-02T08:55:09.733Z,13.47
2019-05-02T08:59:14.741Z,13.67
2019-05-02T09:03:20.515Z,13.77
2019-05-02T09:07:26.389Z,15.83
2019-05-02T09:11:32.054Z,12.90
2019-05-02T09:15:40.348Z,11.60
2019-05-02T09:19:59.176Z,11.23
2019-05-02T09:23:52.603Z,15.73
2019-05-02T09:27:58.300Z,11.43
2019-05-02T09:32:05.019Z,13.03
2019-05-02T09:36:11.894Z,14.73
2019-05-02T09:40:17.974Z,14.87
2019-05-02T09:44:23.666Z,15.80
2019-05-02T09:48:29.364Z,14.47
2019-05-02T09:52:39.592Z,12.57
2019-05-02T09:56:43.121Z,10.57
2019-05-02T10:00:56.256Z,15.40
2019-05-02T10:05:02.028Z,12.50
2019-05-02T10:09:11.918Z,17.47
2019-05-02T10:13:17.290Z,12.37
2019-05-02T10:17:28.791Z,11.00
2019-05-02T10:21:34.687Z,11.37
2019-05-02T10:26:20.086Z,8.80
2019-05-02T10:30:25.637Z,9.13
2019-05-02T10:34:32.975Z,10.37
2019-05-02T10:38:38.825Z,11.83
2019-05-02T10:42:44.531Z,10.67
2019-05-02T10:46:57.741Z,11.53
2019-05-02T10:51:25.587Z,11.53
2019-05-02T10:55:28.600Z,9.63
2019-05-02T10:59:34.290Z,15.67
2019-05-02T11:03:47.434Z,12.07
2019-05-02T11:07:52.361Z,11.17
2019-05-02T11:12:02.576Z,11.80
2019-05-02T11:16:15.441Z,12.63
2019-05-02T11:24:44.437Z,9.77
2019-05-02T11:28:52.001Z,11.87
2019-05-02T11:32:58.778Z,11.37
2019-05-02T11:37:04.731Z,15.10
2019-05-02T11:41:11.924Z,13.53
2019-05-02T11:45:17.795Z,11.33
2019-05-02T11:49:23.530Z,10.73
2019-05-02T11:53:29.650Z,11.73
2019-05-02T11:57:35.382Z,11.40
2019-05-02T12:01:42.729Z,13.27
2019-05-02T12:05:49.443Z,11.87
2019-05-02T12:14:48.976Z,9.93
2019-05-02T12:19:08.190Z,9.90
2019-05-02T12:23:02.228Z,8.30
2019-05-02T12:27:08.057Z,8.20
2019-05-02T12:31:22.160Z,10.70
2019-05-02T12:35:27.818Z,11.77
2019-05-02T12:39:33.513Z,8.33
2019-05-02T12:43:39.204Z,7.57
2019-05-02T12:47:45.128Z,8.43
2019-05-02T12:51:52.437Z,11.13
2019-05-02T12:55:58.325Z,7.90
2019-05-02T13:00:08.146Z,8.30
2019-05-02T13:04:14.314Z,11.77
2019-05-02T13:08:21.921Z,7.50
2019-05-02T13:12:29.085Z,8.13
2019-05-02T13:16:34.796Z,13.47
2019-05-02T13:20:41.740Z,6.83
2019-05-02T13:24:54.961Z,6.90
2019-05-02T13:28:59.657Z,9.10
2019-05-02T13:33:07.154Z,11.40
2019-05-02T13:42:18.359Z,7.83
2019-05-02T13:46:26.764Z,10.33
2019-05-02T13:50:31.831Z,8.47
2019-05-02T13:54:38.360Z,6.83
2019-05-02T13:58:44.015Z,7.50
2019-05-02T14:02:51.886Z,6.73
2019-05-02T14:06:57.309Z,7.77
2019-05-02T14:11:05.524Z,9.00
2019-05-02T14:15:13.834Z,7.20
2019-05-02T14:19:19.654Z,7.53
2019-05-02T14:23:27.102Z,8.07
2019-05-02T14:27:32.920Z,8.60
2019-05-02T14:31:38.609Z,9.37
2019-05-02T14:35:46.363Z,9.30
2019-05-02T14:39:53.698Z,7.97
2019-05-02T14:43:59.466Z,7.33
2019-05-02T14:48:18.416Z,9.10
2019-05-02T14:52:13.027Z,10.30
2019-05-02T17:37:22.675Z,7.03
2019-05-02T17:41:28.350Z,6.57
2019-05-02T17:45:38.491Z,7.77
2019-05-02T17:49:42.309Z,6.57
2019-05-02T17:53:57.248Z,7.73
2019-05-02T17:58:04.570Z,9.20
2019-05-02T18:02:12.442Z,7.53
2019-05-02T18:06:30.110Z,8.03
2019-05-02T18:10:25.678Z,10.07
2019-05-02T18:14:31.355Z,8.93
2019-05-02T18:18:46.746Z,8.87
2019-05-02T18:22:51.939Z,8.87
2019-05-02T18:26:57.888Z,25.93
2019-05-02T18:31:05.832Z,8.80
2019-05-02T18:35:12.712Z,8.87
2019-05-02T18:39:18.555Z,27.00
2019-05-02T18:43:24.305Z,8.50
2019-05-02T18:47:30.002Z,6.80
2019-05-02T18:51:35.746Z,7.60
2019-05-02T18:55:42.205Z,8.37
2019-05-02T18:59:52.080Z,10.33
2019-05-02T19:03:56.684Z,7.43
2019-05-02T19:08:02.677Z,8.20
2019-05-02T19:12:41.913Z,8.13
2019-05-02T19:16:47.540Z,8.27
2019-05-02T19:23:22.603Z,9.20
2019-05-02T19:27:30.095Z,9.11
2019-05-02T19:31:44.332Z,9.87
2019-05-02T19:35:46.938Z,9.13
2019-05-02T19:44:11.941Z,10.30
2019-05-02T19:48:22.850Z,11.38
2019-05-02T19:52:38.608Z,10.50
2019-05-02T19:56:52.384Z,10.17
2019-05-02T20:00:57.959Z,12.78
2019-05-02T20:05:04.293Z,12.87
2019-05-02T20:09:10.617Z,13.60
2019-05-02T20:13:20.283Z,14.30
2019-05-02T20:17:33.146Z,18.30
2019-05-02T20:22:24.349Z,16.63
2019-05-02T20:26:32.391Z,21.63
2019-05-02T20:30:38.042Z,17.17
2019-05-02T20:34:43.752Z,18.53
2019-05-02T20:38:49.543Z,22.00
2019-05-02T20:42:55.843Z,23.03
2019-05-02T20:47:02.563Z,21.50
2019-05-02T20:51:08.333Z,22.93
2019-05-02T20:55:14.597Z,23.42
2019-05-02T20:59:21.815Z,19.90
2019-05-02T21:03:27.684Z,21.63
2019-05-02T21:07:42.300Z,21.23
2019-05-02T21:11:49.829Z,21.83
2019-05-02T21:15:56.072Z,22.83
2019-05-02T21:20:02.046Z,25.20
2019-05-02T21:24:07.916Z,22.43
2019-05-02T21:28:13.618Z,24.30
2019-05-02T21:32:19.313Z,25.90
2019-05-02T21:36:25.972Z,25.37
2019-05-02T21:40:32.694Z,25.80
2019-05-02T21:44:38.542Z,22.97
2019-05-02T21:48:44.297Z,23.52
2019-05-02T21:53:07.307Z,23.83
2019-05-02T21:57:14.640Z,25.83
2019-05-02T22:01:22.228Z,24.07
2019-05-02T22:05:27.989Z,25.43
2019-05-02T22:09:33.742Z,25.50
2019-05-02T22:13:39.433Z,26.57
2019-05-02T22:21:53.620Z,27.17
2019-05-02T22:25:59.363Z,27.33
2019-05-02T22:30:07.899Z,24.97
2019-05-02T22:34:13.581Z,26.87
2019-05-02T22:38:37.030Z,26.07
2019-05-02T22:42:42.856Z,28.37
2019-05-02T22:46:48.628Z,27.80
2019-05-02T22:50:54.337Z,24.67
2019-05-02T22:55:00.023Z,26.73
2019-05-02T22:59:06.822Z,23.10
2019-05-02T23:03:12.797Z,25.63
2019-05-02T23:07:18.491Z,27.90
2019-05-02T23:11:24.528Z,23.97
2019-05-02T23:15:31.991Z,24.15
2019-05-02T23:19:37.879Z,24.70
2019-05-02T23:23:43.589Z,23.07
2019-05-02T23:27:51.887Z,27.03
2019-05-02T23:31:57.597Z,27.33
2019-05-02T23:36:03.342Z,23.77
2019-05-02T23:40:09.359Z,24.77
2019-05-02T23:44:15.048Z,26.40
2019-05-02T23:48:22.072Z,22.13
2019-05-02T23:52:27.776Z,21.90
2019-05-02T23:56:33.609Z,21.87
